sensor_id;sensor_type;location;lat;lon;timestamp;pressure;altitude;pressure_sealevel;temperature;humidity
9439;BME280;5176;42.622;25.386;2023-03-13T00:02:27;97463.44;;;6.74;44.38
9439;BME280;5176;42.622;25.386;2023-03-13T00:04:55;97467.78;;;6.75;43.96
9439;BME280;5176;42.622;25.386;2023-03-13T00:07:24;97460.06;;;6.72;43.83
9439;BME280;5176;42.622;25.386;2023-03-13T00:09:53;97458.84;;;6.61;44.22
9439;BME280;5176;42.622;25.386;2023-03-13T00:12:21;97463.44;;;6.55;43.80
9439;BME280;5176;42.622;25.386;2023-03-13T00:14:50;97464.94;;;6.41;44.10
9439;BME280;5176;42.622;25.386;2023-03-13T00:17:21;97468.59;;;6.37;44.16
9439;BME280;5176;42.622;25.386;2023-03-13T00:19:49;97458.38;;;6.32;43.92
9439;BME280;5176;42.622;25.386;2023-03-13T00:22:18;97465.16;;;6.36;44.64
9439;BME280;5176;42.622;25.386;2023-03-13T00:24:47;97464.09;;;6.40;44.41
9439;BME280;5176;42.622;25.386;2023-03-13T00:27:16;97464.16;;;6.39;43.78
9439;BME280;5176;42.622;25.386;2023-03-13T00:29:44;97468.38;;;6.41;43.80
9439;BME280;5176;42.622;25.386;2023-03-13T00:32:13;97460.97;;;6.32;44.30
9439;BME280;5176;42.622;25.386;2023-03-13T00:34:43;97462.16;;;6.25;44.57
9439;BME280;5176;42.622;25.386;2023-03-13T00:37:12;97465.78;;;6.21;44.16
9439;BME280;5176;42.622;25.386;2023-03-13T00:39:41;97464.63;;;6.08;44.83
9439;BME280;5176;42.622;25.386;2023-03-13T00:42:10;97474.16;;;6.09;44.25
9439;BME280;5176;42.622;25.386;2023-03-13T00:44:39;97465.69;;;6.04;44.83
9439;BME280;5176;42.622;25.386;2023-03-13T00:47:08;97456.44;;;5.96;45.30
9439;BME280;5176;42.622;25.386;2023-03-13T00:49:37;97457.06;;;6.01;44.84
9439;BME280;5176;42.622;25.386;2023-03-13T00:52:07;97455.53;;;5.97;45.38
9439;BME280;5176;42.622;25.386;2023-03-13T00:54:36;97465.09;;;5.97;45.57
9439;BME280;5176;42.622;25.386;2023-03-13T00:57:05;97464.25;;;5.96;45.31
9439;BME280;5176;42.622;25.386;2023-03-13T00:59:34;97464.44;;;5.92;45.40
9439;BME280;5176;42.622;25.386;2023-03-13T01:02:03;97454.25;;;5.86;46.13
9439;BME280;5176;42.622;25.386;2023-03-13T01:04:31;97459.25;;;5.90;46.29
9439;BME280;5176;42.622;25.386;2023-03-13T01:07:00;97464.53;;;5.89;46.10
9439;BME280;5176;42.622;25.386;2023-03-13T01:09:30;97472.22;;;5.92;45.55
9439;BME280;5176;42.622;25.386;2023-03-13T01:11:59;97466.97;;;5.93;45.80
9439;BME280;5176;42.622;25.386;2023-03-13T01:14:29;97468.66;;;5.94;45.62
9439;BME280;5176;42.622;25.386;2023-03-13T01:16:58;97467.69;;;5.97;45.25
9439;BME280;5176;42.622;25.386;2023-03-13T01:19:27;97473.75;;;5.97;44.99
9439;BME280;5176;42.622;25.386;2023-03-13T01:21:56;97476.16;;;6.02;45.04
9439;BME280;5176;42.622;25.386;2023-03-13T01:24:25;97479.59;;;6.03;45.85
9439;BME280;5176;42.622;25.386;2023-03-13T01:26:55;97478.75;;;6.02;45.50
9439;BME280;5176;42.622;25.386;2023-03-13T01:29:24;97469.44;;;5.96;45.22
9439;BME280;5176;42.622;25.386;2023-03-13T01:31:53;97473.91;;;5.93;45.65
9439;BME280;5176;42.622;25.386;2023-03-13T01:34:21;97479.13;;;5.93;45.54
9439;BME280;5176;42.622;25.386;2023-03-13T01:36:50;97488.63;;;5.94;45.83
9439;BME280;5176;42.622;25.386;2023-03-13T01:39:19;97486.09;;;5.92;46.15
9439;BME280;5176;42.622;25.386;2023-03-13T01:41:48;97494.81;;;5.91;46.63
9439;BME280;5176;42.622;25.386;2023-03-13T01:44:21;97503.66;;;5.86;45.65
9439;BME280;5176;42.622;25.386;2023-03-13T01:46:51;97505.59;;;5.81;46.69
9439;BME280;5176;42.622;25.386;2023-03-13T01:49:23;97500.59;;;5.76;46.43
9439;BME280;5176;42.622;25.386;2023-03-13T01:51:58;97508.81;;;5.65;47.23
9439;BME280;5176;42.622;25.386;2023-03-13T01:54:33;97505.78;;;5.54;47.38
9439;BME280;5176;42.622;25.386;2023-03-13T01:57:05;97518.41;;;5.43;48.39
9439;BME280;5176;42.622;25.386;2023-03-13T01:59:40;97509.38;;;5.30;48.81
9439;BME280;5176;42.622;25.386;2023-03-13T02:02:10;97518.94;;;5.29;48.61
9439;BME280;5176;42.622;25.386;2023-03-13T02:04:44;97519.88;;;5.27;48.99
9439;BME280;5176;42.622;25.386;2023-03-13T02:07:18;97515.19;;;5.13;48.87
9439;BME280;5176;42.622;25.386;2023-03-13T02:09:52;97521.59;;;5.04;49.65
9439;BME280;5176;42.622;25.386;2023-03-13T02:12:26;97528.47;;;5.05;49.99
9439;BME280;5176;42.622;25.386;2023-03-13T02:15:00;97538.59;;;4.89;50.54
9439;BME280;5176;42.622;25.386;2023-03-13T02:17:31;97544.06;;;4.82;51.13
9439;BME280;5176;42.622;25.386;2023-03-13T02:20:03;97538.13;;;4.78;50.89
9439;BME280;5176;42.622;25.386;2023-03-13T02:22:38;97548.25;;;4.61;51.37
9439;BME280;5176;42.622;25.386;2023-03-13T02:25:15;97547.59;;;4.56;52.31
9439;BME280;5176;42.622;25.386;2023-03-13T02:27:52;97544.44;;;4.46;52.47
9439;BME280;5176;42.622;25.386;2023-03-13T02:30:23;97552.22;;;4.46;52.18
9439;BME280;5176;42.622;25.386;2023-03-13T02:32:51;97549.91;;;4.38;52.86
9439;BME280;5176;42.622;25.386;2023-03-13T02:35:21;97553.66;;;4.30;52.61
9439;BME280;5176;42.622;25.386;2023-03-13T02:37:54;97555.03;;;4.15;52.66
9439;BME280;5176;42.622;25.386;2023-03-13T02:40:25;97559.38;;;4.15;52.82
9439;BME280;5176;42.622;25.386;2023-03-13T02:43:00;97562.91;;;4.12;53.21
9439;BME280;5176;42.622;25.386;2023-03-13T02:45:29;97564.44;;;4.18;52.69
9439;BME280;5176;42.622;25.386;2023-03-13T02:47:58;97568.81;;;4.17;53.34
9439;BME280;5176;42.622;25.386;2023-03-13T02:50:26;97573.28;;;4.12;53.76
9439;BME280;5176;42.622;25.386;2023-03-13T02:52:58;97568.09;;;4.12;53.72
9439;BME280;5176;42.622;25.386;2023-03-13T02:55:31;97573.72;;;3.98;53.68
9439;BME280;5176;42.622;25.386;2023-03-13T02:58:04;97579.72;;;4.00;54.12
9439;BME280;5176;42.622;25.386;2023-03-13T03:00:33;97578.06;;;3.98;54.30
9439;BME280;5176;42.622;25.386;2023-03-13T03:03:01;97586.81;;;3.95;54.71
9439;BME280;5176;42.622;25.386;2023-03-13T03:05:30;97596.19;;;3.99;54.26
9439;BME280;5176;42.622;25.386;2023-03-13T03:07:59;97592.72;;;3.99;54.19
9439;BME280;5176;42.622;25.386;2023-03-13T03:10:27;97593.22;;;3.83;54.69
9439;BME280;5176;42.622;25.386;2023-03-13T03:12:56;97591.47;;;3.84;55.32
9439;BME280;5176;42.622;25.386;2023-03-13T03:15:26;97597.50;;;3.85;55.08
9439;BME280;5176;42.622;25.386;2023-03-13T03:17:55;97598.47;;;3.82;54.51
9439;BME280;5176;42.622;25.386;2023-03-13T03:20:23;97597.81;;;3.75;55.14
9439;BME280;5176;42.622;25.386;2023-03-13T03:22:52;97611.81;;;3.70;55.55
9439;BME280;5176;42.622;25.386;2023-03-13T03:25:21;97611.75;;;3.71;55.05
9439;BME280;5176;42.622;25.386;2023-03-13T03:27:49;97624.00;;;3.66;54.92
9439;BME280;5176;42.622;25.386;2023-03-13T03:30:18;97608.91;;;3.51;55.17
9439;BME280;5176;42.622;25.386;2023-03-13T03:32:49;97633.44;;;3.69;54.50
9439;BME280;5176;42.622;25.386;2023-03-13T03:35:18;97635.13;;;3.70;54.49
9439;BME280;5176;42.622;25.386;2023-03-13T03:37:46;97640.28;;;3.71;54.57
9439;BME280;5176;42.622;25.386;2023-03-13T03:40:15;97639.66;;;3.63;54.88
9439;BME280;5176;42.622;25.386;2023-03-13T03:42:44;97644.44;;;3.47;55.72
9439;BME280;5176;42.622;25.386;2023-03-13T03:45:12;97648.63;;;3.51;55.81
9439;BME280;5176;42.622;25.386;2023-03-13T03:47:41;97653.28;;;3.40;56.20
9439;BME280;5176;42.622;25.386;2023-03-13T03:50:12;97658.50;;;3.39;56.98
9439;BME280;5176;42.622;25.386;2023-03-13T03:52:40;97655.28;;;3.31;57.12
9439;BME280;5176;42.622;25.386;2023-03-13T03:55:09;97660.81;;;3.18;57.46
9439;BME280;5176;42.622;25.386;2023-03-13T03:57:38;97661.88;;;3.11;57.74
9439;BME280;5176;42.622;25.386;2023-03-13T04:00:08;97653.34;;;3.08;58.11
9439;BME280;5176;42.622;25.386;2023-03-13T04:02:40;97661.19;;;3.05;58.29
9439;BME280;5176;42.622;25.386;2023-03-13T04:05:09;97664.16;;;2.91;58.99
9439;BME280;5176;42.622;25.386;2023-03-13T04:07:40;97674.06;;;2.75;59.84
9439;BME280;5176;42.622;25.386;2023-03-13T04:10:10;97682.53;;;2.80;60.31
9439;BME280;5176;42.622;25.386;2023-03-13T04:12:39;97684.34;;;2.78;59.84
9439;BME280;5176;42.622;25.386;2023-03-13T04:15:09;97684.41;;;2.75;60.66
9439;BME280;5176;42.622;25.386;2023-03-13T04:17:39;97689.56;;;2.77;60.88
9439;BME280;5176;42.622;25.386;2023-03-13T04:20:09;97695.50;;;2.80;60.68
9439;BME280;5176;42.622;25.386;2023-03-13T04:22:41;97688.06;;;2.66;61.12
9439;BME280;5176;42.622;25.386;2023-03-13T04:25:10;97707.22;;;2.61;60.79
9439;BME280;5176;42.622;25.386;2023-03-13T04:27:39;97700.88;;;2.37;61.58
9439;BME280;5176;42.622;25.386;2023-03-13T04:30:09;97706.16;;;2.32;61.91
9439;BME280;5176;42.622;25.386;2023-03-13T04:32:38;97710.63;;;2.26;62.33
9439;BME280;5176;42.622;25.386;2023-03-13T04:35:07;97716.75;;;2.23;62.96
9439;BME280;5176;42.622;25.386;2023-03-13T04:37:36;97719.19;;;2.29;63.74
9439;BME280;5176;42.622;25.386;2023-03-13T04:40:08;97716.59;;;2.29;63.29
9439;BME280;5176;42.622;25.386;2023-03-13T04:42:39;97723.44;;;2.32;63.17
9439;BME280;5176;42.622;25.386;2023-03-13T04:45:10;97726.09;;;2.27;63.40
9439;BME280;5176;42.622;25.386;2023-03-13T04:47:39;97732.16;;;2.26;62.32
9439;BME280;5176;42.622;25.386;2023-03-13T04:50:08;97737.44;;;2.23;62.27
9439;BME280;5176;42.622;25.386;2023-03-13T04:52:37;97741.75;;;2.23;62.66
9439;BME280;5176;42.622;25.386;2023-03-13T04:55:08;97741.88;;;2.16;62.60
9439;BME280;5176;42.622;25.386;2023-03-13T04:57:37;97738.69;;;2.05;62.57
9439;BME280;5176;42.622;25.386;2023-03-13T05:00:07;97748.94;;;2.10;63.12
9439;BME280;5176;42.622;25.386;2023-03-13T05:02:37;97746.19;;;2.17;62.37
9439;BME280;5176;42.622;25.386;2023-03-13T05:05:06;97746.38;;;2.08;63.12
9439;BME280;5176;42.622;25.386;2023-03-13T05:07:35;97750.50;;;2.17;62.81
9439;BME280;5176;42.622;25.386;2023-03-13T05:10:04;97757.31;;;2.19;63.08
9439;BME280;5176;42.622;25.386;2023-03-13T05:12:35;97753.88;;;2.19;62.90
9439;BME280;5176;42.622;25.386;2023-03-13T05:15:04;97760.72;;;2.23;63.25
9439;BME280;5176;42.622;25.386;2023-03-13T05:17:33;97765.88;;;2.23;63.29
9439;BME280;5176;42.622;25.386;2023-03-13T05:20:01;97766.03;;;2.17;63.46
9439;BME280;5176;42.622;25.386;2023-03-13T05:22:33;97771.06;;;2.23;64.17
9439;BME280;5176;42.622;25.386;2023-03-13T05:25:02;97772.97;;;2.15;64.76
9439;BME280;5176;42.622;25.386;2023-03-13T05:27:31;97769.41;;;2.19;64.73
9439;BME280;5176;42.622;25.386;2023-03-13T05:30:02;97770.03;;;2.30;64.27
9439;BME280;5176;42.622;25.386;2023-03-13T05:32:30;97769.75;;;2.42;64.08
9439;BME280;5176;42.622;25.386;2023-03-13T05:34:59;97769.72;;;2.44;64.31
9439;BME280;5176;42.622;25.386;2023-03-13T05:37:28;97772.22;;;2.49;63.76
9439;BME280;5176;42.622;25.386;2023-03-13T05:39:56;97766.91;;;2.55;63.72
9439;BME280;5176;42.622;25.386;2023-03-13T05:42:25;97769.47;;;2.55;63.85
9439;BME280;5176;42.622;25.386;2023-03-13T05:44:53;97771.88;;;2.62;63.54
9439;BME280;5176;42.622;25.386;2023-03-13T05:47:23;97767.41;;;2.69;63.91
9439;BME280;5176;42.622;25.386;2023-03-13T05:49:52;97768.97;;;2.76;63.61
9439;BME280;5176;42.622;25.386;2023-03-13T05:52:21;97764.53;;;2.80;63.53
9439;BME280;5176;42.622;25.386;2023-03-13T05:54:49;97768.59;;;2.91;63.44
9439;BME280;5176;42.622;25.386;2023-03-13T05:57:18;97775.16;;;3.05;64.07
9439;BME280;5176;42.622;25.386;2023-03-13T05:59:47;97774.75;;;3.21;63.28
9439;BME280;5176;42.622;25.386;2023-03-13T06:02:15;97782.69;;;3.48;62.66
9439;BME280;5176;42.622;25.386;2023-03-13T06:04:45;97791.41;;;3.76;61.43
9439;BME280;5176;42.622;25.386;2023-03-13T06:07:14;97795.78;;;4.04;60.17
9439;BME280;5176;42.622;25.386;2023-03-13T06:09:43;97801.31;;;4.21;59.04
9439;BME280;5176;42.622;25.386;2023-03-13T06:12:12;97744.81;;;4.03;59.16
9439;BME280;5176;42.622;25.386;2023-03-13T06:14:42;97801.97;;;4.57;59.65
9439;BME280;5176;42.622;25.386;2023-03-13T06:17:10;97794.50;;;4.75;58.88
9439;BME280;5176;42.622;25.386;2023-03-13T06:19:39;97791.50;;;4.88;57.91
9439;BME280;5176;42.622;25.386;2023-03-13T06:22:09;97783.97;;;5.06;57.38
9439;BME280;5176;42.622;25.386;2023-03-13T06:24:38;97791.94;;;5.26;57.28
9439;BME280;5176;42.622;25.386;2023-03-13T06:27:07;97793.28;;;5.38;56.51
9439;BME280;5176;42.622;25.386;2023-03-13T06:29:36;97791.69;;;5.59;56.16
9439;BME280;5176;42.622;25.386;2023-03-13T06:32:05;97808.41;;;5.77;54.99
9439;BME280;5176;42.622;25.386;2023-03-13T06:34:34;97797.50;;;5.90;54.78
9439;BME280;5176;42.622;25.386;2023-03-13T06:37:03;97803.09;;;6.05;54.04
9439;BME280;5176;42.622;25.386;2023-03-13T06:39:33;97800.53;;;6.26;53.65
9439;BME280;5176;42.622;25.386;2023-03-13T06:42:02;97809.19;;;6.50;53.96
9439;BME280;5176;42.622;25.386;2023-03-13T06:44:31;97798.69;;;6.74;52.98
9439;BME280;5176;42.622;25.386;2023-03-13T06:46:59;97801.25;;;6.97;51.46
9439;BME280;5176;42.622;25.386;2023-03-13T06:49:28;97797.84;;;7.17;52.19
9439;BME280;5176;42.622;25.386;2023-03-13T06:51:57;97793.09;;;7.47;49.66
9439;BME280;5176;42.622;25.386;2023-03-13T06:54:26;97794.66;;;7.72;49.98
9439;BME280;5176;42.622;25.386;2023-03-13T06:56:56;97795.16;;;7.80;48.54
9439;BME280;5176;42.622;25.386;2023-03-13T06:59:25;97799.84;;;7.92;48.32
9439;BME280;5176;42.622;25.386;2023-03-13T07:01:53;97792.03;;;8.11;48.38
9439;BME280;5176;42.622;25.386;2023-03-13T07:04:22;97797.91;;;8.35;47.73
9439;BME280;5176;42.622;25.386;2023-03-13T07:06:51;97791.28;;;8.65;46.73
9439;BME280;5176;42.622;25.386;2023-03-13T07:09:20;97796.25;;;8.89;46.64
9439;BME280;5176;42.622;25.386;2023-03-13T07:11:48;97798.63;;;9.30;45.15
9439;BME280;5176;42.622;25.386;2023-03-13T07:14:20;97796.09;;;9.45;45.02
9439;BME280;5176;42.622;25.386;2023-03-13T07:16:49;97800.63;;;9.59;44.73
9439;BME280;5176;42.622;25.386;2023-03-13T07:19:18;97793.81;;;9.90;43.94
9439;BME280;5176;42.622;25.386;2023-03-13T07:21:46;97789.28;;;10.09;43.29
9439;BME280;5176;42.622;25.386;2023-03-13T07:24:15;97787.69;;;10.22;42.67
9439;BME280;5176;42.622;25.386;2023-03-13T07:26:44;97790.91;;;10.45;42.00
9439;BME280;5176;42.622;25.386;2023-03-13T07:29:13;97791.91;;;10.74;41.33
9439;BME280;5176;42.622;25.386;2023-03-13T07:31:44;97786.00;;;10.86;41.31
9439;BME280;5176;42.622;25.386;2023-03-13T07:34:13;97783.69;;;10.96;41.00
9439;BME280;5176;42.622;25.386;2023-03-13T07:36:41;97796.66;;;11.29;40.83
9439;BME280;5176;42.622;25.386;2023-03-13T07:39:10;97797.47;;;11.45;39.27
9439;BME280;5176;42.622;25.386;2023-03-13T07:41:38;97798.81;;;11.66;39.07
9439;BME280;5176;42.622;25.386;2023-03-13T07:44:07;97794.06;;;11.73;38.41
9439;BME280;5176;42.622;25.386;2023-03-13T07:46:36;97799.94;;;11.77;38.42
9439;BME280;5176;42.622;25.386;2023-03-13T07:49:06;97793.63;;;11.95;38.43
9439;BME280;5176;42.622;25.386;2023-03-13T07:51:35;97797.88;;;12.12;37.55
9439;BME280;5176;42.622;25.386;2023-03-13T07:54:04;97789.06;;;11.98;36.87
9439;BME280;5176;42.622;25.386;2023-03-13T07:56:33;97786.13;;;12.03;37.42
9439;BME280;5176;42.622;25.386;2023-03-13T07:59:01;97790.09;;;12.24;36.47
9439;BME280;5176;42.622;25.386;2023-03-13T08:01:30;97792.22;;;12.46;35.81
9439;BME280;5176;42.622;25.386;2023-03-13T08:03:59;97779.59;;;12.66;36.07
9439;BME280;5176;42.622;25.386;2023-03-13T08:06:31;97783.47;;;12.60;35.95
9439;BME280;5176;42.622;25.386;2023-03-13T08:09:02;97782.88;;;12.69;35.53
9439;BME280;5176;42.622;25.386;2023-03-13T08:11:30;97780.88;;;12.46;34.98
9439;BME280;5176;42.622;25.386;2023-03-13T08:13:59;97775.91;;;12.68;35.06
9439;BME280;5176;42.622;25.386;2023-03-13T08:16:29;97783.88;;;12.40;34.26
9439;BME280;5176;42.622;25.386;2023-03-13T08:19:00;97778.84;;;12.64;34.00
9439;BME280;5176;42.622;25.386;2023-03-13T08:21:34;97773.91;;;12.86;33.28
9439;BME280;5176;42.622;25.386;2023-03-13T08:24:04;97767.91;;;12.84;32.89
9439;BME280;5176;42.622;25.386;2023-03-13T08:26:35;97768.38;;;12.76;31.58
9439;BME280;5176;42.622;25.386;2023-03-13T08:29:06;97758.22;;;13.12;31.74
9439;BME280;5176;42.622;25.386;2023-03-13T08:31:37;97755.53;;;12.72;30.60
9439;BME280;5176;42.622;25.386;2023-03-13T08:34:06;97742.75;;;12.39;31.07
9439;BME280;5176;42.622;25.386;2023-03-13T08:36:38;97756.66;;;12.68;30.98
9439;BME280;5176;42.622;25.386;2023-03-13T08:39:09;97761.78;;;12.83;30.61
9439;BME280;5176;42.622;25.386;2023-03-13T08:41:38;97767.94;;;12.97;30.31
9439;BME280;5176;42.622;25.386;2023-03-13T08:44:10;97756.56;;;12.96;29.41
9439;BME280;5176;42.622;25.386;2023-03-13T08:46:40;97769.13;;;13.05;27.57
9439;BME280;5176;42.622;25.386;2023-03-13T08:49:10;97764.94;;;13.16;26.28
9439;BME280;5176;42.622;25.386;2023-03-13T08:51:42;97779.38;;;13.50;26.46
9439;BME280;5176;42.622;25.386;2023-03-13T08:54:11;97772.25;;;13.65;26.02
9439;BME280;5176;42.622;25.386;2023-03-13T08:56:39;97771.81;;;13.83;24.27
9439;BME280;5176;42.622;25.386;2023-03-13T08:59:09;97773.84;;;13.93;21.65
9439;BME280;5176;42.622;25.386;2023-03-13T09:01:38;97778.69;;;14.11;20.91
9439;BME280;5176;42.622;25.386;2023-03-13T09:04:07;97773.84;;;14.18;21.16
9439;BME280;5176;42.622;25.386;2023-03-13T09:06:37;97781.72;;;14.31;21.41
9439;BME280;5176;42.622;25.386;2023-03-13T09:09:09;97780.06;;;14.04;21.63
9439;BME280;5176;42.622;25.386;2023-03-13T09:11:38;97779.00;;;14.07;21.66
9439;BME280;5176;42.622;25.386;2023-03-13T09:14:08;97778.78;;;13.97;21.87
9439;BME280;5176;42.622;25.386;2023-03-13T09:16:37;97771.81;;;14.09;22.51
9439;BME280;5176;42.622;25.386;2023-03-13T09:19:06;97765.81;;;14.32;21.17
9439;BME280;5176;42.622;25.386;2023-03-13T09:21:37;97761.03;;;14.37;20.91
9439;BME280;5176;42.622;25.386;2023-03-13T09:24:08;97753.75;;;14.41;20.77
9439;BME280;5176;42.622;25.386;2023-03-13T09:26:37;97757.19;;;14.67;21.25
9439;BME280;5176;42.622;25.386;2023-03-13T09:29:06;97745.25;;;14.74;21.96
9439;BME280;5176;42.622;25.386;2023-03-13T09:31:34;97751.88;;;14.80;22.08
9439;BME280;5176;42.622;25.386;2023-03-13T09:34:04;97752.09;;;14.27;22.43
9439;BME280;5176;42.622;25.386;2023-03-13T09:36:32;97749.44;;;14.27;22.16
9439;BME280;5176;42.622;25.386;2023-03-13T09:39:01;97742.94;;;13.95;23.33
9439;BME280;5176;42.622;25.386;2023-03-13T09:41:38;97720.59;;;13.87;21.97
9439;BME280;5176;42.622;25.386;2023-03-13T09:44:11;97743.06;;;13.93;23.68
9439;BME280;5176;42.622;25.386;2023-03-13T09:46:47;97740.28;;;14.20;22.83
9439;BME280;5176;42.622;25.386;2023-03-13T09:49:27;97725.22;;;14.09;22.82
9439;BME280;5176;42.622;25.386;2023-03-13T09:52:02;97726.91;;;14.10;22.88
9439;BME280;5176;42.622;25.386;2023-03-13T09:54:37;97728.53;;;14.50;23.57
9439;BME280;5176;42.622;25.386;2023-03-13T09:57:13;97728.66;;;14.35;22.47
9439;BME280;5176;42.622;25.386;2023-03-13T09:59:46;97727.22;;;14.18;21.86
9439;BME280;5176;42.622;25.386;2023-03-13T10:02:23;97724.47;;;14.20;21.91
9439;BME280;5176;42.622;25.386;2023-03-13T10:04:59;97713.84;;;14.58;22.12
9439;BME280;5176;42.622;25.386;2023-03-13T10:07:30;97716.97;;;14.63;22.81
9439;BME280;5176;42.622;25.386;2023-03-13T10:10:00;97715.13;;;14.77;22.27
9439;BME280;5176;42.622;25.386;2023-03-13T10:12:37;97715.44;;;14.85;22.65
9439;BME280;5176;42.622;25.386;2023-03-13T10:15:31;97713.84;;;15.06;23.16
9439;BME280;5176;42.622;25.386;2023-03-13T10:18:11;97715.44;;;15.20;23.86
9439;BME280;5176;42.622;25.386;2023-03-13T10:20:42;97721.19;;;15.14;23.38
9439;BME280;5176;42.622;25.386;2023-03-13T10:23:17;97717.22;;;14.84;23.07
9439;BME280;5176;42.622;25.386;2023-03-13T10:25:46;97714.41;;;14.98;22.98
9439;BME280;5176;42.622;25.386;2023-03-13T10:28:17;97714.41;;;15.34;23.18
9439;BME280;5176;42.622;25.386;2023-03-13T10:30:49;97713.44;;;15.35;23.17
9439;BME280;5176;42.622;25.386;2023-03-13T10:33:22;97710.47;;;15.39;23.69
9439;BME280;5176;42.622;25.386;2023-03-13T10:36:08;97701.72;;;15.50;24.36
9439;BME280;5176;42.622;25.386;2023-03-13T10:38:47;97702.00;;;15.58;22.98
9439;BME280;5176;42.622;25.386;2023-03-13T10:41:24;97695.69;;;15.72;22.48
9439;BME280;5176;42.622;25.386;2023-03-13T10:43:59;97689.47;;;15.49;23.04
9439;BME280;5176;42.622;25.386;2023-03-13T10:46:30;97688.03;;;15.56;23.17
9439;BME280;5176;42.622;25.386;2023-03-13T10:49:00;97682.56;;;15.70;22.01
9439;BME280;5176;42.622;25.386;2023-03-13T10:51:34;97670.81;;;15.86;22.91
9439;BME280;5176;42.622;25.386;2023-03-13T10:54:18;97663.56;;;16.21;22.70
9439;BME280;5176;42.622;25.386;2023-03-13T10:56:50;97661.28;;;15.83;21.96
9439;BME280;5176;42.622;25.386;2023-03-13T10:59:24;97653.59;;;15.91;22.24
9439;BME280;5176;42.622;25.386;2023-03-13T11:01:57;97647.69;;;16.10;22.60
9439;BME280;5176;42.622;25.386;2023-03-13T11:04:30;97642.94;;;15.93;22.86
9439;BME280;5176;42.622;25.386;2023-03-13T11:07:01;97646.91;;;15.65;22.60
9439;BME280;5176;42.622;25.386;2023-03-13T11:09:30;97639.63;;;14.39;22.84
9439;BME280;5176;42.622;25.386;2023-03-13T11:12:03;97636.00;;;14.40;23.42
9439;BME280;5176;42.622;25.386;2023-03-13T11:14:35;97638.88;;;14.37;23.40
9439;BME280;5176;42.622;25.386;2023-03-13T11:17:10;97640.84;;;14.70;24.24
9439;BME280;5176;42.622;25.386;2023-03-13T11:19:51;97637.19;;;15.30;23.45
9439;BME280;5176;42.622;25.386;2023-03-13T11:22:28;97637.47;;;15.61;23.27
9439;BME280;5176;42.622;25.386;2023-03-13T11:25:07;97635.81;;;15.71;22.93
9439;BME280;5176;42.622;25.386;2023-03-13T11:27:45;97623.81;;;15.89;23.22
9439;BME280;5176;42.622;25.386;2023-03-13T11:30:27;97623.31;;;15.84;23.22
9439;BME280;5176;42.622;25.386;2023-03-13T11:33:01;97621.88;;;15.91;23.14
9439;BME280;5176;42.622;25.386;2023-03-13T11:35:38;97615.13;;;16.10;23.53
9439;BME280;5176;42.622;25.386;2023-03-13T11:38:12;97612.88;;;16.05;23.28
9439;BME280;5176;42.622;25.386;2023-03-13T11:40:51;97600.72;;;15.91;23.46
9439;BME280;5176;42.622;25.386;2023-03-13T11:46:29;97601.44;;;15.60;23.63
9439;BME280;5176;42.622;25.386;2023-03-13T11:49:28;97594.88;;;15.65;23.54
9439;BME280;5176;42.622;25.386;2023-03-13T11:52:17;97598.59;;;15.74;23.54
9439;BME280;5176;42.622;25.386;2023-03-13T11:55:00;97584.28;;;15.99;23.52
9439;BME280;5176;42.622;25.386;2023-03-13T11:57:35;97582.34;;;16.01;23.39
9439;BME280;5176;42.622;25.386;2023-03-13T12:00:16;97577.94;;;15.79;23.95
9439;BME280;5176;42.622;25.386;2023-03-13T12:02:52;97575.03;;;15.82;23.43
9439;BME280;5176;42.622;25.386;2023-03-13T12:05:22;97578.03;;;15.89;22.98
9439;BME280;5176;42.622;25.386;2023-03-13T12:07:56;97550.41;;;15.70;23.14
9439;BME280;5176;42.622;25.386;2023-03-13T12:10:32;97568.28;;;15.44;22.55
9439;BME280;5176;42.622;25.386;2023-03-13T12:13:06;97577.53;;;15.27;22.68
9439;BME280;5176;42.622;25.386;2023-03-13T12:15:42;97573.28;;;14.91;23.13
9439;BME280;5176;42.622;25.386;2023-03-13T12:18:18;97572.47;;;15.13;23.08
9439;BME280;5176;42.622;25.386;2023-03-13T12:20:52;97561.94;;;15.36;23.23
9439;BME280;5176;42.622;25.386;2023-03-13T12:23:28;97561.47;;;15.53;22.64
9439;BME280;5176;42.622;25.386;2023-03-13T12:26:04;97560.38;;;15.33;21.36
9439;BME280;5176;42.622;25.386;2023-03-13T12:28:38;97553.03;;;15.48;21.47
9439;BME280;5176;42.622;25.386;2023-03-13T12:31:17;97541.50;;;15.49;21.27
9439;BME280;5176;42.622;25.386;2023-03-13T12:33:56;97554.97;;;15.46;21.63
9439;BME280;5176;42.622;25.386;2023-03-13T12:36:31;97544.06;;;15.62;22.06
9439;BME280;5176;42.622;25.386;2023-03-13T12:39:10;97540.31;;;15.75;22.44
9439;BME280;5176;42.622;25.386;2023-03-13T12:41:47;97546.16;;;16.01;22.71
9439;BME280;5176;42.622;25.386;2023-03-13T12:44:18;97546.00;;;16.14;22.16
9439;BME280;5176;42.622;25.386;2023-03-13T12:46:56;97549.16;;;16.08;21.77
9439;BME280;5176;42.622;25.386;2023-03-13T12:49:51;97546.97;;;16.13;21.71
9439;BME280;5176;42.622;25.386;2023-03-13T12:52:37;97548.69;;;16.35;22.10
9439;BME280;5176;42.622;25.386;2023-03-13T12:55:40;97539.03;;;16.45;21.32
9439;BME280;5176;42.622;25.386;2023-03-13T12:58:29;97540.50;;;16.38;21.20
9439;BME280;5176;42.622;25.386;2023-03-13T13:01:07;97539.63;;;16.49;21.85
9439;BME280;5176;42.622;25.386;2023-03-13T13:03:50;97540.09;;;16.22;21.74
9439;BME280;5176;42.622;25.386;2023-03-13T13:06:21;97541.94;;;16.42;22.51
9439;BME280;5176;42.622;25.386;2023-03-13T13:09:05;97536.03;;;16.71;21.71
9439;BME280;5176;42.622;25.386;2023-03-13T13:11:47;97533.50;;;16.69;21.82
9439;BME280;5176;42.622;25.386;2023-03-13T13:17:22;97530.13;;;16.99;21.82
9439;BME280;5176;42.622;25.386;2023-03-13T13:19:54;97529.09;;;17.21;22.59
9439;BME280;5176;42.622;25.386;2023-03-13T13:22:49;97530.94;;;17.00;22.43
9439;BME280;5176;42.622;25.386;2023-03-13T13:25:31;97522.16;;;16.99;22.35
9439;BME280;5176;42.622;25.386;2023-03-13T13:28:24;97533.66;;;16.88;22.88
9439;BME280;5176;42.622;25.386;2023-03-13T13:30:56;97525.09;;;16.64;22.97
9439;BME280;5176;42.622;25.386;2023-03-13T13:33:36;97515.84;;;16.70;22.29
9439;BME280;5176;42.622;25.386;2023-03-13T13:36:27;97520.94;;;16.29;22.54
9439;BME280;5176;42.622;25.386;2023-03-13T13:38:59;97513.03;;;16.18;23.09
9439;BME280;5176;42.622;25.386;2023-03-13T13:41:34;97516.47;;;16.30;22.73
9439;BME280;5176;42.622;25.386;2023-03-13T13:44:27;97514.97;;;16.48;22.49
9439;BME280;5176;42.622;25.386;2023-03-13T13:46:58;97509.19;;;16.22;22.76
9439;BME280;5176;42.622;25.386;2023-03-13T13:49:34;97508.41;;;16.31;22.36